Time;durP1;ratioP1;P1;durP2;ratioP2;P2;SDS_P1;SDS_P2;PMS_P1;PMS_P2;Temp;Humidity;BMP_temperature;BMP_pressure;BME280_temperature;BME280_humidity;BME280_pressure;Samples;Min_cycle;Max_cycle;Signal;HPM_P1;HPM_P2
2022/10/30 00:01:14;;;;;;;10.93;9.40;;;;;;;21.58;58.86;101863.91;5077082;28;20052;-79
2022/10/30 00:03:41;;;;;;;9.95;8.95;;;;;;;21.56;58.93;101856.97;5077127;28;20044;-80
2022/10/30 00:06:08;;;;;;;10.98;9.45;;;;;;;21.57;58.82;101851.44;5077324;28;20055;-80
2022/10/30 00:08:35;;;;;;;9.57;8.45;;;;;;;21.57;58.84;101859.53;5076666;28;20059;-79
2022/10/30 00:11:08;;;;;;;11.93;8.82;;;;;;;21.56;58.72;101851.56;5077216;28;20044;-79
2022/10/30 00:13:36;;;;;;;9.07;8.20;;;;;;;21.57;58.90;101850.59;5077406;28;20396;-79
2022/10/30 00:16:06;;;;;;;10.50;9.40;;;;;;;21.56;58.86;101848.88;5076760;28;20055;-80
2022/10/30 00:18:35;;;;;;;9.25;8.40;;;;;;;21.55;58.94;101848.00;5076001;28;20051;-79
2022/10/30 00:21:12;;;;;;;9.35;8.48;;;;;;;21.58;58.86;101849.59;5076400;28;20051;-79
2022/10/30 00:23:48;;;;;;;9.80;8.57;;;;;;;21.56;58.80;101849.72;5076007;28;20052;-80
2022/10/30 00:26:16;;;;;;;10.15;9.05;;;;;;;21.56;58.76;101851.56;5074962;28;20044;-80
2022/10/30 00:28:47;;;;;;;13.38;9.45;;;;;;;21.56;58.75;101851.56;5077119;28;20036;-80
2022/10/30 00:31:15;;;;;;;9.98;8.30;;;;;;;21.56;58.73;101847.03;5074952;28;20071;-79
2022/10/30 00:33:42;;;;;;;11.93;8.70;;;;;;;21.56;58.74;101847.03;5074584;28;20060;-78
2022/10/30 00:36:09;;;;;;;11.02;9.25;;;;;;;21.55;58.80;101836.34;5076341;28;20044;-79
2022/10/30 00:38:37;;;;;;;9.95;8.55;;;;;;;21.56;58.81;101847.03;5074946;28;20053;-79
2022/10/30 00:41:04;;;;;;;12.05;8.88;;;;;;;21.56;58.79;101840.78;5076215;28;20041;-79
2022/10/30 00:43:37;;;;;;;11.30;9.10;;;;;;;21.56;58.81;101838.09;5077073;28;20374;-79
2022/10/30 00:46:36;;;;;;;8.73;7.90;;;;;;;21.56;58.79;101838.94;5076642;28;20051;-79
2022/10/30 00:49:15;;;;;;;11.73;9.30;;;;;;;21.55;58.71;101831.81;5076685;28;20396;-79
2022/10/30 00:51:50;;;;;;;10.55;8.45;;;;;;;21.54;58.80;101832.81;5075908;28;20052;-79
2022/10/30 00:54:19;;;;;;;11.07;7.97;;;;;;;21.55;58.73;101836.34;5076383;28;20059;-79
2022/10/30 00:56:48;;;;;;;11.85;9.18;;;;;;;21.53;58.87;101827.56;5074179;28;20071;-79
2022/10/30 00:59:21;;;;;;;9.88;8.95;;;;;;;21.54;58.72;101832.81;5076204;28;20055;-79
2022/10/30 01:01:49;;;;;;;9.40;8.43;;;;;;;21.54;58.64;101830.13;5075803;28;20048;-79
2022/10/30 01:04:18;;;;;;;10.35;8.82;;;;;;;21.54;58.81;101840.91;5075807;28;20048;-79
2022/10/30 01:06:50;;;;;;;9.02;8.13;;;;;;;21.53;58.67;101827.56;5074369;28;20488;-79
2022/10/30 01:09:19;;;;;;;10.13;8.93;;;;;;;21.53;58.57;101831.09;5075880;28;20052;-79
2022/10/30 01:11:46;;;;;;;10.02;7.93;;;;;;;21.53;58.72;101828.41;5075576;28;20041;-79
2022/10/30 01:14:18;;;;;;;12.98;9.07;;;;;;;21.53;58.59;101824.84;5074370;28;20048;-78
2022/10/30 01:17:04;;;;;;;9.45;8.45;;;;;;;21.52;58.66;101825.84;5074838;28;20059;-79
2022/10/30 01:19:58;;;;;;;10.48;8.15;;;;;;;21.53;58.69;101823.03;5074851;28;20044;-80
2022/10/30 01:22:31;;;;;;;9.07;7.97;;;;;;;21.53;58.62;101822.16;5088137;28;20055;-79
2022/10/30 01:25:38;;;;;;;9.63;8.63;;;;;;;21.51;58.58;101813.34;5073915;28;20468;-79
2022/10/30 01:28:34;;;;;;;10.32;7.30;;;;;;;21.50;58.53;101815.16;5074444;28;20056;-79
2022/10/30 01:31:08;;;;;;;9.35;8.23;;;;;;;21.51;58.44;101813.34;5075811;28;20037;-79
2022/10/30 01:33:45;;;;;;;9.63;8.73;;;;;;;21.52;58.56;101812.38;5073693;28;20480;-79
2022/10/30 01:36:25;;;;;;;9.13;8.23;;;;;;;21.50;58.40;101803.53;5074383;28;20055;-80
2022/10/30 01:39:01;;;;;;;9.48;7.80;;;;;;;21.49;58.52;101794.59;5073873;28;20044;-80
2022/10/30 01:41:29;;;;;;;8.82;7.65;;;;;;;21.49;58.40;101794.59;5074083;28;20052;-80
2022/10/30 01:44:02;;;;;;;9.00;8.13;;;;;;;21.50;58.54;101796.31;5057862;28;20048;-79
2022/10/30 01:47:14;;;;;;;10.75;7.85;;;;;;;21.50;58.50;101796.31;5074034;28;20504;-80
2022/10/30 01:49:50;;;;;;;9.75;8.75;;;;;;;21.50;58.54;101798.16;5073980;28;20059;-80
2022/10/30 01:52:41;;;;;;;8.80;8.00;;;;;;;21.49;58.46;101794.59;5074236;28;20055;-80
2022/10/30 01:55:11;;;;;;;9.38;8.45;;;;;;;21.49;58.47;101800.00;5082863;28;20048;-81
2022/10/30 01:58:01;;;;;;;9.50;8.55;;;;;;;21.50;58.44;101799.00;5074024;28;20067;-80
2022/10/30 02:00:29;;;;;;;9.05;8.10;;;;;;;21.50;58.51;101798.16;5074011;28;20049;-81
2022/10/30 02:02:56;;;;;;;8.35;7.55;;;;;;;21.47;58.44;101788.47;5075153;28;20503;-79
2022/10/30 02:05:47;;;;;;;8.73;7.82;;;;;;;21.49;58.41;101794.59;5076791;28;20080;-80
2022/10/30 02:08:18;;;;;;;10.65;8.82;;;;;;;21.50;58.49;101796.31;5076383;28;20049;-79
2022/10/30 02:10:48;;;;;;;8.30;7.60;;;;;;;21.47;58.73;101786.66;5076428;28;20480;-79
2022/10/30 02:13:16;;;;;;;9.90;8.18;;;;;;;21.49;58.98;101794.59;5076916;28;20053;-80
2022/10/30 02:15:46;;;;;;;8.45;7.63;;;;;;;21.48;58.85;101792.91;5077650;28;20446;-80
2022/10/30 02:18:13;;;;;;;9.65;8.65;;;;;;;21.47;58.72;101780.38;5077540;28;20063;-80
2022/10/30 02:20:41;;;;;;;8.27;7.47;;;;;;;21.48;58.96;101782.13;5077196;28;20419;-79
2022/10/30 02:23:12;;;;;;;8.63;7.68;;;;;;;21.49;59.20;101786.53;5077309;28;20057;-80
2022/10/30 02:25:39;;;;;;;8.23;7.43;;;;;;;21.47;59.37;101775.88;5077042;28;20055;-79
2022/10/30 02:28:09;;;;;;;8.13;7.32;;;;;;;21.48;59.45;101776.75;5077168;28;20487;-78
2022/10/30 02:30:37;;;;;;;8.75;7.65;;;;;;;21.48;59.48;101779.44;5076997;28;20067;-78
2022/10/30 02:33:04;;;;;;;8.88;7.75;;;;;;;21.49;59.49;101783.84;5076472;28;20056;-78
2022/10/30 02:35:34;;;;;;;8.55;7.75;;;;;;;21.48;59.53;101782.13;5078492;28;20048;-81
2022/10/30 02:38:02;;;;;;;10.07;7.20;;;;;;;21.48;59.50;101782.13;5077129;28;20060;-82
2022/10/30 02:40:30;;;;;;;9.00;7.65;;;;;;;21.48;59.64;101779.44;5076850;28;20048;-79
2022/10/30 02:42:57;;;;;;;8.63;7.75;;;;;;;21.47;59.29;101778.56;5078085;28;20045;-79
2022/10/30 02:45:24;;;;;;;9.02;8.13;;;;;;;21.49;58.66;101778.44;5076670;28;20052;-79
2022/10/30 02:47:52;;;;;;;11.75;8.23;;;;;;;21.48;59.05;101774.03;5078229;28;20484;-79
2022/10/30 02:50:19;;;;;;;8.60;7.55;;;;;;;21.48;58.83;101777.59;5076377;28;20496;-79
2022/10/30 02:52:47;;;;;;;8.30;7.25;;;;;;;21.47;58.95;101775.88;5076552;28;20052;-78
2022/10/30 02:55:14;;;;;;;9.27;7.47;;;;;;;21.46;58.41;101778.69;5059823;28;20063;-79
2022/10/30 02:57:41;;;;;;;8.23;7.25;;;;;;;21.48;58.46;101776.75;5076611;28;20063;-79
2022/10/30 03:00:10;;;;;;;8.13;7.32;;;;;;;21.47;58.39;101786.66;5076196;28;20485;-79
2022/10/30 03:02:37;;;;;;;9.15;7.72;;;;;;;21.47;58.36;101785.78;5076224;28;20052;-79
2022/10/30 03:05:05;;;;;;;9.63;7.60;;;;;;;21.47;58.40;101780.38;5077771;28;20056;-79
2022/10/30 03:07:32;;;;;;;8.38;7.53;;;;;;;21.47;58.40;101780.38;5076713;28;20052;-79
2022/10/30 03:10:00;;;;;;;8.10;7.18;;;;;;;21.45;58.25;101785.91;5076340;28;20054;-80
2022/10/30 03:12:29;;;;;;;11.23;8.02;;;;;;;21.44;58.30;101784.19;5075908;28;20063;-80
2022/10/30 03:14:57;;;;;;;8.98;8.07;;;;;;;21.45;58.34;101785.06;5077912;28;20053;-79
2022/10/30 03:17:26;;;;;;;8.48;7.43;;;;;;;21.44;58.42;101777.97;5076634;28;20427;-79
2022/10/30 03:19:53;;;;;;;8.38;7.57;;;;;;;21.44;58.31;101769.88;5075880;28;20496;-79
2022/10/30 03:22:20;;;;;;;11.05;7.85;;;;;;;21.45;58.26;101785.06;5076126;28;20055;-81
2022/10/30 03:24:48;;;;;;;8.18;7.38;;;;;;;21.43;58.27;101782.50;5078022;28;20051;-80
2022/10/30 03:27:16;;;;;;;7.88;7.07;;;;;;;21.45;58.21;101795.84;5076724;28;20052;-81
2022/10/30 03:29:44;;;;;;;8.10;6.88;;;;;;;21.42;58.17;101783.44;5077886;28;20044;-80
2022/10/30 03:32:12;;;;;;;10.02;8.23;;;;;;;21.44;58.21;101792.28;5077407;28;20040;-81
2022/10/30 03:34:46;;;;;;;9.10;7.85;;;;;;;21.44;58.15;101780.66;5078358;28;20060;-80
2022/10/30 03:37:13;;;;;;;8.52;7.45;;;;;;;21.44;58.20;101786.03;5078053;28;20052;-79
2022/10/30 03:39:40;;;;;;;7.95;7.18;;;;;;;21.43;58.08;101785.19;5077403;28;20392;-79
2022/10/30 03:42:07;;;;;;;10.13;7.72;;;;;;;21.43;58.18;101795.97;5075903;28;20045;-80
2022/10/30 03:44:35;;;;;;;8.43;7.50;;;;;;;21.43;58.18;101785.19;5078366;28;20048;-80
2022/10/30 03:47:03;;;;;;;7.97;7.00;;;;;;;21.43;58.08;101789.69;5075793;28;20048;-80
2022/10/30 03:49:35;;;;;;;8.25;7.35;;;;;;;21.42;58.11;101790.69;5075984;28;20053;-80
2022/10/30 03:52:07;;;;;;;7.88;7.07;;;;;;;21.43;57.95;101795.97;5060385;28;20500;-80
2022/10/30 03:54:35;;;;;;;7.50;6.75;;;;;;;21.42;57.98;101793.38;5077227;28;20400;-81
2022/10/30 03:57:02;;;;;;;8.45;7.10;;;;;;;21.40;58.06;101790.81;5076207;28;20504;-80
2022/10/30 03:59:38;;;;;;;8.73;7.80;;;;;;;21.42;58.11;101796.91;5076084;28;20040;-80
2022/10/30 04:02:31;;;;;;;;;;;;;;;21.41;57.95;101794.38;5069386;28;20526;-81
2022/10/30 04:04:59;;;;;;;7.47;6.78;;;;;;;21.41;57.96;101788.97;5075587;28;19920;-80
2022/10/30 04:07:26;;;;;;;8.20;7.05;;;;;;;21.40;58.18;101785.44;5075665;28;20403;-80
2022/10/30 04:09:53;;;;;;;8.02;6.78;;;;;;;21.40;57.98;101798.91;5075538;28;20049;-80
2022/10/30 04:12:20;;;;;;;8.55;7.63;;;;;;;21.41;57.94;101795.22;5059398;28;20052;-80
2022/10/30 04:14:49;;;;;;;8.50;7.43;;;;;;;21.40;57.86;101798.91;5075260;28;20412;-81
2022/10/30 04:17:17;;;;;;;7.07;6.38;;;;;;;21.40;57.87;101789.97;5076156;28;20052;-81
2022/10/30 04:19:45;;;;;;;7.72;7.03;;;;;;;21.38;57.76;101790.06;5077370;28;20049;-81
2022/10/30 04:22:13;;;;;;;8.80;7.18;;;;;;;21.40;57.95;101789.97;5074912;28;20059;-80
2022/10/30 04:24:40;;;;;;;7.97;7.10;;;;;;;21.39;57.91;101799.00;5077232;28;20052;-82
2022/10/30 04:27:08;;;;;;;8.15;6.97;;;;;;;21.39;57.90;101794.50;5074201;28;20543;-81
2022/10/30 04:29:36;;;;;;;7.88;7.03;;;;;;;21.38;57.92;101791.91;5074820;28;20044;-80
2022/10/30 04:32:04;;;;;;;8.25;7.43;;;;;;;21.38;57.81;101791.91;5074674;28;20048;-80
2022/10/30 04:34:38;;;;;;;7.93;7.13;;;;;;;21.38;57.93;101798.16;5074640;28;20060;-80
2022/10/30 04:37:06;;;;;;;9.00;7.10;;;;;;;21.38;57.71;101792.75;5074553;28;20052;-81
2022/10/30 04:39:34;;;;;;;9.05;7.15;;;;;;;21.38;57.88;101797.28;5074767;28;20488;-81
2022/10/30 04:42:11;;;;;;;6.82;5.93;;;;;;;21.38;57.66;101786.50;5074456;28;20489;-80
2022/10/30 04:44:39;;;;;;;9.05;7.40;;;;;;;21.38;57.68;101790.06;5074220;28;20060;-81
2022/10/30 04:47:08;;;;;;;8.15;6.78;;;;;;;21.37;57.73;101782.97;5075781;28;20484;-81
2022/10/30 04:49:35;;;;;;;7.43;6.63;;;;;;;21.36;57.78;101783.09;5075200;28;20052;-80
2022/10/30 04:52:03;;;;;;;7.30;6.60;;;;;;;21.37;57.75;101782.97;5075506;28;20501;-80
2022/10/30 04:54:30;;;;;;;8.07;6.53;;;;;;;21.36;57.77;101783.97;5074983;28;20057;-79
2022/10/30 04:56:58;;;;;;;6.97;6.25;;;;;;;21.33;57.87;101772.56;5074694;28;20052;-80
2022/10/30 04:59:28;;;;;;;6.25;5.65;;;;;;;;;;5074489;28;20055;-80
2022/10/30 05:01:55;;;;;;;7.28;6.57;;;;;;;21.37;57.99;101792.91;5074413;28;20053;-80
2022/10/30 05:04:23;;;;;;;7.38;6.68;;;;;;;21.38;57.76;101791.91;5076610;28;20133;-81
2022/10/30 05:06:50;;;;;;;7.28;6.57;;;;;;;21.35;57.73;101784.06;5073908;28;20496;-80
2022/10/30 05:09:18;;;;;;;6.70;6.00;;;;;;;21.35;57.57;101784.06;5074180;28;20067;-80
2022/10/30 05:11:45;;;;;;;8.40;6.88;;;;;;;21.36;57.61;101785.81;5074111;28;20400;-80
2022/10/30 05:14:13;;;;;;;7.03;6.18;;;;;;;21.36;57.52;101788.50;5073814;28;20162;-80
2022/10/30 05:16:41;;;;;;;7.78;6.45;;;;;;;21.35;57.41;101784.06;5074094;28;20044;-81
2022/10/30 05:19:08;;;;;;;6.82;6.22;;;;;;;;;;5073925;28;20048;-79
2022/10/30 05:21:36;;;;;;;6.65;6.00;;;;;;;21.36;58.34;101783.09;5074044;28;20404;-79
2022/10/30 05:24:04;;;;;;;7.45;6.47;;;;;;;21.34;58.34;101779.66;5074077;28;20424;-78
2022/10/30 05:26:39;;;;;;;7.00;6.28;;;;;;;;;;5073794;28;20048;-79
2022/10/30 05:29:06;;;;;;;7.78;6.35;;;;;;;21.34;57.50;101777.81;5073595;28;20060;-78
2022/10/30 05:31:34;;;;;;;6.70;6.00;;;;;;;;;;5074066;28;20408;-79
2022/10/30 05:34:04;;;;;;;6.80;6.10;;;;;;;21.34;57.56;101779.66;5075357;28;20056;-79
2022/10/30 05:36:36;;;;;;;10.93;6.00;;;;;;;21.34;57.53;101787.75;5073306;28;20059;-79
2022/10/30 05:39:03;;;;;;;7.10;6.25;;;;;;;21.33;57.32;101789.59;5073019;28;20049;-78
2022/10/30 05:41:37;;;;;;;7.55;6.30;;;;;;;21.33;57.42;101786.03;5073598;28;20049;-79
2022/10/30 05:44:05;;;;;;;7.07;6.00;;;;;;;21.33;57.48;101784.19;5073242;28;20049;-78
2022/10/30 05:46:33;;;;;;;6.50;5.65;;;;;;;21.34;57.37;101785.06;5073816;28;20053;-78
2022/10/30 05:49:17;;;;;;;5.80;5.28;;;;;;;21.33;57.38;101786.88;5073697;28;20501;-78
2022/10/30 05:51:44;;;;;;;7.63;6.18;;;;;;;21.32;57.41;101787.88;5075100;28;20043;-79
2022/10/30 05:54:12;;;;;;;6.00;5.38;;;;;;;21.33;57.45;101791.41;5073623;28;20053;-79
2022/10/30 05:56:52;;;;;;;7.13;5.68;;;;;;;21.31;57.23;101783.44;5073294;28;20400;-79
2022/10/30 05:59:19;;;;;;;9.15;6.55;;;;;;;21.30;57.29;101781.69;5074013;28;20052;-79
2022/10/30 06:01:47;;;;;;;7.05;5.78;;;;;;;21.31;57.15;101787.94;5073583;28;20049;-79
2022/10/30 06:04:14;;;;;;;5.75;5.15;;;;;;;21.31;57.21;101783.44;5073683;28;20045;-79
2022/10/30 06:06:42;;;;;;;8.07;6.05;;;;;;;21.30;57.16;101786.25;5073981;28;20428;-78
2022/10/30 06:09:09;;;;;;;6.90;6.30;;;;;;;21.29;57.14;101787.22;5074933;28;20064;-79
2022/10/30 06:11:46;;;;;;;6.35;5.75;;;;;;;21.30;57.19;101788.94;5073074;28;20396;-79
2022/10/30 06:14:14;;;;;;;7.85;5.00;;;;;;;21.31;57.18;101793.34;5073313;28;20514;-78
2022/10/30 06:16:49;;;;;;;8.20;5.82;;;;;;;21.30;57.19;101799.69;5089909;28;20059;-79
2022/10/30 06:19:36;;;;;;;6.35;5.75;;;;;;;21.28;57.12;101797.16;5073475;28;20492;-80
2022/10/30 06:22:22;;;;;;;6.05;5.45;;;;;;;21.28;57.25;101799.84;5081940;28;20071;-80
2022/10/30 06:24:57;;;;;;;5.93;5.38;;;;;;;21.29;57.03;101808.78;5073582;28;20130;-80
2022/10/30 06:28:00;;;;;;;6.97;5.60;;;;;;;21.29;57.10;101803.38;5053669;28;20044;-81
2022/10/30 06:30:30;;;;;;;6.05;5.30;;;;;;;21.28;57.08;101807.91;5035919;28;20052;-80
2022/10/30 06:33:03;;;;;;;5.82;5.25;;;;;;;21.29;56.98;101803.38;5035313;28;20060;-81
2022/10/30 06:35:32;;;;;;;7.80;5.75;;;;;;;21.29;57.02;101806.06;5036838;28;20095;-80
2022/10/30 06:38:00;;;;;;;6.03;5.43;;;;;;;21.29;56.87;101814.16;5036409;28;20433;-79
2022/10/30 06:40:29;;;;;;;6.32;5.65;;;;;;;21.30;56.85;101811.34;5035351;28;20053;-80
2022/10/30 06:43:15;;;;;;;7.10;6.35;;;;;;;21.27;56.94;101808.91;5055326;28;20164;-79
2022/10/30 06:45:48;;;;;;;;;;;;;;;21.28;56.82;101809.75;5036253;28;20080;-80
2022/10/30 06:48:17;;;;;;;7.05;6.35;;;;;;;21.29;56.90;101815.00;5036143;28;19927;-79
2022/10/30 06:50:56;;;;;;;6.43;5.82;;;;;;;21.28;56.98;101807.06;5035010;28;20504;-79
2022/10/30 06:53:24;;;;;;;;;;;;;;;21.28;56.71;101816.00;5038899;28;20049;-81
2022/10/30 06:56:02;;;;;;;6.28;5.68;;;;;;;21.29;56.84;101819.53;5054892;28;19920;-81
2022/10/30 06:58:49;;;;;;;5.95;5.45;;;;;;;21.28;56.84;101824.06;5038988;28;20053;-80
2022/10/30 07:01:45;;;;;;;6.85;5.85;;;;;;;21.28;56.83;101816.00;4971286;28;20371;-80
2022/10/30 07:04:15;;;;;;;6.10;5.50;;;;;;;21.29;56.88;101819.53;4997164;28;20050;-80
2022/10/30 07:06:43;;;;;;;6.03;5.43;;;;;;;21.28;56.77;101825.91;4997549;28;20450;-80
2022/10/30 07:09:11;;;;;;;6.30;5.80;;;;;;;21.27;56.77;101816.09;4995909;28;20054;-80
2022/10/30 07:11:44;;;;;;;6.22;5.60;;;;;;;21.28;56.73;101823.22;4979872;28;20054;-80
2022/10/30 07:14:18;;;;;;;6.32;5.55;;;;;;;21.26;56.91;101820.63;4995921;28;20054;-80
2022/10/30 07:17:08;;;;;;;6.32;5.55;;;;;;;21.27;56.73;101816.09;4969707;28;20069;-80
2022/10/30 07:19:37;;;;;;;7.22;5.45;;;;;;;21.27;56.80;101827.75;4996155;28;20066;-80
2022/10/30 07:22:05;;;;;;;6.70;5.38;;;;;;;21.27;56.94;101821.47;4978580;28;20149;-80
2022/10/30 07:24:34;;;;;;;6.15;5.50;;;;;;;21.26;56.95;101814.38;4995654;28;20061;-80
2022/10/30 07:27:24;;;;;;;5.72;5.18;;;;;;;21.26;56.81;101823.31;4996186;28;20462;-81
2022/10/30 07:30:30;;;;;;;7.57;5.65;;;;;;;21.26;56.96;101825.16;4958758;28;20054;-80
2022/10/30 07:33:22;;;;;;;6.75;5.78;;;;;;;21.26;56.87;101819.78;4956628;29;20051;-80
2022/10/30 07:36:03;;;;;;;5.82;5.18;;;;;;;21.26;56.97;101825.16;4956955;28;20051;-80
2022/10/30 07:38:56;;;;;;;6.75;6.05;;;;;;;21.24;56.89;101826.16;4970793;28;20156;-79
2022/10/30 07:41:49;;;;;;;;;;;;;;;21.26;56.93;101830.56;4971824;28;20507;-79
2022/10/30 07:44:39;;;;;;;8.00;7.20;;;;;;;21.25;56.97;101829.69;4974766;28;19929;-79
2022/10/30 07:47:16;;;;;;;6.03;5.53;;;;;;;21.25;56.89;101832.38;4959477;28;20054;-78
2022/10/30 07:49:48;;;;;;;6.20;5.00;;;;;;;21.24;56.89;101828.84;4959278;28;20054;-78
2022/10/30 07:52:17;;;;;;;5.22;4.72;;;;;;;21.26;56.94;101834.09;4959969;28;20058;-81
2022/10/30 07:54:47;;;;;;;7.25;5.70;;;;;;;21.26;56.89;101835.94;4961010;28;20050;-80
2022/10/30 07:57:41;;;;;;;7.10;5.38;;;;;;;21.24;56.88;101828.84;4974966;28;20527;-79
2022/10/30 08:00:23;;;;;;;8.88;6.15;;;;;;;21.24;57.13;101828.84;4985442;28;20055;-80
2022/10/30 08:03:01;;;;;;;6.57;5.03;;;;;;;21.25;55.67;101837.78;5017847;28;20049;-78
2022/10/30 08:05:55;;;;;;;7.68;5.18;;;;;;;21.22;53.93;101836.16;5031571;28;20405;-80
2022/10/30 08:08:28;;;;;;;6.70;5.28;;;;;;;21.21;53.61;101841.69;5017297;28;20046;-82
2022/10/30 08:11:13;;;;;;;6.55;5.85;;;;;;;21.21;53.21;101841.69;5017741;28;20042;-80
2022/10/30 08:13:41;;;;;;;5.53;4.97;;;;;;;21.21;52.95;101837.16;5016672;28;20153;-80
2022/10/30 08:16:08;;;;;;;6.20;5.50;;;;;;;21.20;53.01;101842.66;5032663;28;20047;-78
2022/10/30 08:18:37;;;;;;;8.38;5.28;;;;;;;21.21;53.11;101839.00;5073699;28;20053;-80
2022/10/30 08:21:04;;;;;;;6.22;4.95;;;;;;;21.20;53.12;101831.91;5074943;28;20048;-80
2022/10/30 08:23:32;;;;;;;7.70;4.90;;;;;;;21.20;52.87;101831.91;5073530;28;20063;-79
2022/10/30 08:26:05;;;;;;;5.78;5.00;;;;;;;21.22;54.20;101830.78;5074864;28;20054;-79
2022/10/30 08:28:35;;;;;;;6.03;4.85;;;;;;;21.21;53.51;101831.78;5075627;28;20055;-81
2022/10/30 08:31:06;;;;;;;8.40;5.40;;;;;;;21.19;53.02;101831.03;5058123;28;20056;-85
2022/10/30 08:33:52;;;;;;;9.20;5.50;;;;;;;21.19;52.46;101828.34;5082239;28;20071;-80
2022/10/30 08:36:35;;;;;;;7.15;5.25;;;;;;;21.19;51.98;101832.88;5072873;28;20044;-80
2022/10/30 08:39:02;;;;;;;6.60;4.63;;;;;;;21.18;52.49;101825.75;5073450;28;20060;-81
2022/10/30 08:42:08;;;;;;;6.05;5.38;;;;;;;21.18;51.88;101828.44;5053486;28;20053;-80
2022/10/30 08:44:42;;;;;;;6.10;5.50;;;;;;;21.16;51.75;101833.97;5036379;28;20053;-79
2022/10/30 08:47:27;;;;;;;12.52;11.35;;;;;;;21.14;51.47;101826.97;5041101;28;20052;-79
2022/10/30 08:49:55;;;;;;;8.55;7.10;;;;;;;21.12;52.09;101827.09;5053186;28;20051;-80
2022/10/30 08:52:27;;;;;;;8.32;6.90;;;;;;;21.12;51.78;101823.56;5035666;28;20409;-81
2022/10/30 08:54:55;;;;;;;9.27;8.02;;;;;;;21.11;51.90;101825.41;5020480;28;20056;-81
2022/10/30 08:57:26;;;;;;;17.90;16.13;;;;;;;21.08;51.36;101822.94;5053427;28;20052;-81
2022/10/30 08:59:55;;;;;;;40.17;37.83;;;;;;;21.06;51.48;101832.09;5035961;28;20060;-80
2022/10/30 09:02:41;;;;;;;212.30;199.10;;;;;;;20.99;51.31;101826.34;5059685;28;20048;-80
